Time;durP1;ratioP1;P1;durP2;ratioP2;P2;SDS_P1;SDS_P2;PMS_P1;PMS_P2;Temp;Humidity;BMP_temperature;BMP_pressure;BME280_temperature;BME280_humidity;BME280_pressure;Samples;Min_cycle;Max_cycle;Signal;HPM_P1;HPM_P2
2022/11/09 00:01:09;;;;;;;;;;;;;;;20.55;29.89;98573.59;5036835;28;1095;-72
2022/11/09 00:03:34;;;;;;;;;;;;;;;20.76;29.66;98573.28;5036981;28;919;-72
2022/11/09 00:06:00;;;;;;;;;;;;;;;20.97;29.53;98582.69;5037177;28;1030;-72
2022/11/09 00:08:25;;;;;;;;;;;;;;;21.18;28.87;98582.38;5035693;28;911;-72
2022/11/09 00:10:51;;;;;;;;;;;;;;;20.89;29.58;98575.56;5036944;28;1043;-72
2022/11/09 00:13:16;;;;;;;;;;;;;;;20.66;29.57;98579.91;5035755;28;911;-72
2022/11/09 00:15:42;;;;;;;;;;;;;;;20.45;29.86;98574.50;5035759;28;1921;-72
2022/11/09 00:18:07;;;;;;;;;;;;;;;20.49;30.11;98569.63;5036974;28;880;-72
2022/11/09 00:20:33;;;;;;;;;;;;;;;20.88;29.33;98579.59;5036946;28;948;-72
2022/11/09 00:22:58;;;;;;;;;;;;;;;20.92;29.71;98569.03;5036800;28;1045;-72
2022/11/09 00:25:23;;;;;;;;;;;;;;;20.76;29.32;98566.84;5036724;28;929;-72
2022/11/09 00:27:49;;;;;;;;;;;;;;;20.51;30.10;98572.84;5036218;28;970;-72
2022/11/09 00:30:14;;;;;;;;;;;;;;;20.55;29.89;98567.94;5035572;28;972;-72
2022/11/09 00:32:40;;;;;;;;;;;;;;;20.41;30.14;98562.44;5036325;28;1092;-72
2022/11/09 00:35:05;;;;;;;;;;;;;;;20.93;29.58;98576.28;5036208;28;1910;-72
2022/11/09 00:37:33;;;;;;;;;;;;;;;21.12;29.03;98567.09;5036291;28;977;-72
2022/11/09 00:39:58;;;;;;;;;;;;;;;20.99;29.04;98574.59;5035161;28;1058;-72
2022/11/09 00:42:25;;;;;;;;;;;;;;;20.81;29.30;98570.00;5034784;28;936;-72
2022/11/09 00:44:51;;;;;;;;;;;;;;;20.52;29.96;98568.78;5036250;28;905;-72
2022/11/09 00:47:16;;;;;;;;;;;;;;;20.80;29.76;98562.75;5036131;28;926;-72
2022/11/09 00:49:42;;;;;;;;;;;;;;;21.05;29.32;98567.22;5036220;28;980;-72
2022/11/09 00:52:07;;;;;;;;;;;;;;;21.25;28.88;98564.50;5035269;28;1129;-72
2022/11/09 00:54:33;;;;;;;;;;;;;;;20.67;29.64;98570.19;5033513;28;1106;-72
2022/11/09 00:56:58;;;;;;;;;;;;;;;20.69;29.35;98567.75;5036192;28;1976;-72
2022/11/09 00:59:24;;;;;;;;;;;;;;;20.34;30.10;98568.97;5017245;28;1103;-73
2022/11/09 01:01:49;;;;;;;;;;;;;;;20.77;29.72;98559.94;5034906;28;1123;-72
2022/11/09 01:04:17;;;;;;;;;;;;;;;21.01;29.49;98564.44;5034817;28;1148;-72
2022/11/09 01:06:42;;;;;;;;;;;;;;;21.26;28.77;98561.22;5034085;28;903;-72
2022/11/09 01:09:09;;;;;;;;;;;;;;;20.71;29.66;98567.31;5034286;28;1002;-72
2022/11/09 01:11:35;;;;;;;;;;;;;;;20.80;29.44;98565.56;5018390;28;1217;-72
2022/11/09 01:14:01;;;;;;;;;;;;;;;20.62;29.85;98562.19;5017414;28;1161;-72
2022/11/09 01:16:27;;;;;;;;;;;;;;;20.53;30.16;98559.09;5034518;28;1975;-72
2022/11/09 01:18:53;;;;;;;;;;;;;;;21.05;29.49;98573.69;5034666;28;1009;-72
2022/11/09 01:21:18;;;;;;;;;;;;;;;20.99;29.15;98557.63;5018399;28;1486;-72
2022/11/09 01:23:44;;;;;;;;;;;;;;;20.69;29.84;98567.75;5034690;28;1420;-72
2022/11/09 01:26:10;;;;;;;;;;;;;;;20.70;29.95;98565.72;5034452;28;1202;-72
2022/11/09 01:28:36;;;;;;;;;;;;;;;20.66;30.00;98571.41;5017845;28;1241;-72
2022/11/09 01:31:06;;;;;;;;;;;;;;;20.73;29.88;98574.16;5018256;28;1165;-72
2022/11/09 01:33:31;;;;;;;;;;;;;;;20.37;30.41;98558.88;5034473;28;1098;-72
2022/11/09 01:36:06;;;;;;;;;;;;;;;21.02;29.33;98570.91;5049490;28;1976;-72
2022/11/09 01:38:32;;;;;;;;;;;;;;;21.06;29.01;98580.16;5032795;28;992;-72
2022/11/09 01:40:59;;;;;;;;;;;;;;;20.93;29.44;98571.44;5032626;28;1221;-72
2022/11/09 01:43:25;;;;;;;;;;;;;;;20.68;29.70;98563.31;5049225;28;1206;-72
2022/11/09 01:45:52;;;;;;;;;;;;;;;20.56;30.14;98569.53;5033363;28;972;-72
2022/11/09 01:48:19;;;;;;;;;;;;;;;20.43;30.39;98572.09;5032897;28;1935;-72
2022/11/09 01:50:52;;;;;;;;;;;;;;;20.40;30.19;98572.16;5032913;28;1089;-72
2022/11/09 01:53:18;;;;;;;;;;;;;;;20.98;29.43;98573.78;5066024;28;1269;-72
2022/11/09 01:55:45;;;;;;;;;;;;;;;21.03;29.34;98572.50;5032897;28;1960;-72
2022/11/09 01:58:14;;;;;;;;;;;;;;;20.81;29.50;98567.16;5033142;28;995;-72
2022/11/09 02:00:40;;;;;;;;;;;;;;;20.73;29.86;98567.72;5049171;28;1067;-72
2022/11/09 02:03:08;;;;;;;;;;;;;;;20.69;29.64;98567.75;5049464;28;1109;-72
2022/11/09 02:05:35;;;;;;;;;;;;;;;20.91;29.69;98561.78;5049402;28;1103;-72
2022/11/09 02:08:01;;;;;;;;;;;;;;;21.32;28.72;98570.84;5067146;28;1130;-72
2022/11/09 02:10:30;;;;;;;;;;;;;;;20.67;29.68;98567.34;5034786;28;911;-72
2022/11/09 02:12:58;;;;;;;;;;;;;;;20.67;29.95;98570.19;5033964;28;1299;-72
2022/11/09 02:15:23;;;;;;;;;;;;;;;20.50;29.85;98563.56;5032445;28;1911;-72
2022/11/09 02:17:50;;;;;;;;;;;;;;;20.67;30.03;98570.19;5066959;28;1138;-72
2022/11/09 02:20:16;;;;;;;;;;;;;;;20.97;29.65;98571.38;5069711;28;1330;-72
2022/11/09 02:22:42;;;;;;;;;;;;;;;21.14;29.02;98570.34;5036370;28;965;-72
2022/11/09 02:25:08;;;;;;;;;;;;;;;21.44;28.59;98571.47;5052828;28;1214;-73
2022/11/09 02:27:35;;;;;;;;;;;;;;;20.53;30.16;98570.41;5053081;28;1236;-72
2022/11/09 02:30:01;;;;;;;;;;;;;;;20.64;29.62;98571.06;5069658;28;1381;-72
2022/11/09 02:32:28;;;;;;;;;;;;;;;20.63;29.73;98560.97;5072380;28;1382;-72
2022/11/09 02:34:55;;;;;;;;;;;;;;;20.51;29.83;98564.34;5039269;28;1308;-72
2022/11/09 02:37:41;;;;;;;;;;;;;;;20.93;29.61;98571.44;5055762;28;1913;-72
2022/11/09 02:40:12;;;;;;;;;;;;;;;21.32;29.12;98576.53;5039393;28;1374;-72
2022/11/09 02:42:38;;;;;;;;;;;;;;;20.80;29.75;98562.75;5055837;28;963;-72
2022/11/09 02:45:05;;;;;;;;;;;;;;;21.04;29.44;98571.28;5039325;28;1091;-72
2022/11/09 02:47:31;;;;;;;;;;;;;;;20.75;29.73;98563.22;5023034;28;1204;-72
2022/11/09 02:49:57;;;;;;;;;;;;;;;20.71;29.68;98568.13;5022348;28;993;-72
2022/11/09 02:52:24;;;;;;;;;;;;;;;21.17;29.15;98569.47;5016016;28;1292;-72
2022/11/09 02:54:51;;;;;;;;;;;;;;;21.12;29.31;98561.44;4999734;28;1082;-73
2022/11/09 02:57:17;;;;;;;;;;;;;;;20.81;29.70;98570.00;4999389;28;1919;-72
2022/11/09 02:59:43;;;;;;;;;;;;;;;20.73;29.69;98574.16;4999453;28;1060;-72
2022/11/09 03:02:09;;;;;;;;;;;;;;;20.42;30.07;98559.19;4999559;28;1079;-72
2022/11/09 03:04:35;;;;;;;;;;;;;;;20.80;30.12;98568.41;5015363;28;1103;-72
2022/11/09 03:07:00;;;;;;;;;;;;;;;21.24;29.11;98571.38;5015851;28;1176;-72
2022/11/09 03:09:27;;;;;;;;;;;;;;;21.22;29.26;98574.63;5015426;28;1119;-72
2022/11/09 03:11:54;;;;;;;;;;;;;;;20.74;29.57;98564.44;5015916;28;1181;-72
2022/11/09 03:14:20;;;;;;;;;;;;;;;20.45;30.06;98561.16;5015737;28;1113;-72
2022/11/09 03:16:50;;;;;;;;;;;;;;;20.39;30.37;98564.91;5015542;28;1995;-72
2022/11/09 03:19:15;;;;;;;;;;;;;;;20.92;29.91;98574.69;5015820;28;1070;-72
2022/11/09 03:21:43;;;;;;;;;;;;;;;21.16;29.13;98567.84;4999547;28;1238;-72
2022/11/09 03:24:09;;;;;;;;;;;;;;;20.84;29.67;98574.00;4999147;28;1405;-72
2022/11/09 03:26:37;;;;;;;;;;;;;;;20.74;29.73;98567.28;4960171;28;1329;-72
2022/11/09 03:29:02;;;;;;;;;;;;;;;20.60;30.24;98567.47;4982711;28;941;-72
2022/11/09 03:31:29;;;;;;;;;;;;;;;20.70;29.97;98563.69;4999545;28;1192;-72
2022/11/09 03:33:56;;;;;;;;;;;;;;;20.55;30.20;98568.72;4998996;28;1178;-72
2022/11/09 03:36:21;;;;;;;;;;;;;;;20.89;29.56;98567.06;4998985;28;1910;-72
2022/11/09 03:38:48;;;;;;;;;;;;;;;21.01;29.60;98561.63;4998954;28;1461;-72
2022/11/09 03:41:14;;;;;;;;;;;;;;;20.73;29.65;98571.34;5015024;28;1807;-72
2022/11/09 03:43:39;;;;;;;;;;;;;;;20.57;30.14;98565.47;5015109;28;1134;-72
2022/11/09 03:46:05;;;;;;;;;;;;;;;20.52;30.03;98563.13;5014853;28;1034;-72
2022/11/09 03:48:30;;;;;;;;;;;;;;;20.68;30.04;98560.50;5014866;28;993;-72
2022/11/09 03:50:56;;;;;;;;;;;;;;;20.39;30.38;98560.03;5015048;28;992;-72
2022/11/09 03:53:21;;;;;;;;;;;;;;;21.07;29.05;98559.09;5015041;28;969;-72
2022/11/09 03:55:47;;;;;;;;;;;;;;;21.00;29.37;98562.84;5014670;28;1910;-72
2022/11/09 03:58:12;;;;;;;;;;;;;;;20.75;29.80;98563.22;4998458;28;981;-72
2022/11/09 04:00:37;;;;;;;;;;;;;;;20.81;29.63;98564.34;5014800;28;1025;-72
2022/11/09 04:03:03;;;;;;;;;;;;;;;20.45;30.03;98564.00;5016739;28;933;-72
2022/11/09 04:05:28;;;;;;;;;;;;;;;20.52;30.19;98563.13;5037360;28;902;-72
2022/11/09 04:07:54;;;;;;;;;;;;;;;20.95;29.67;98573.84;5035655;28;1010;-72
2022/11/09 04:10:20;;;;;;;;;;;;;;;20.99;29.52;98571.78;5035615;28;968;-72
2022/11/09 04:12:45;;;;;;;;;;;;;;;20.80;29.83;98570.44;5036895;28;958;-72
2022/11/09 04:15:11;;;;;;;;;;;;;;;20.65;29.91;98572.66;5034212;28;1983;-73
2022/11/09 04:17:36;;;;;;;;;;;;;;;20.77;29.71;98569.22;5036756;28;904;-73
2022/11/09 04:20:02;;;;;;;;;;;;;;;20.54;30.21;98560.69;5036604;28;933;-73
2022/11/09 04:22:27;;;;;;;;;;;;;;;20.71;30.02;98565.28;5035661;28;928;-73
2022/11/09 04:24:53;;;;;;;;;;;;;;;20.74;29.83;98570.09;5036381;28;1095;-73
2022/11/09 04:27:18;;;;;;;;;;;;;;;20.84;29.82;98574.00;5036612;28;834;-73
2022/11/09 04:29:44;;;;;;;;;;;;;;;20.56;30.09;98566.72;5036632;28;851;-73
2022/11/09 04:32:09;;;;;;;;;;;;;;;20.61;30.01;98566.22;5036177;28;911;-73
2022/11/09 04:34:35;;;;;;;;;;;;;;;20.48;30.12;98562.38;5036389;28;1084;-73
2022/11/09 04:37:00;;;;;;;;;;;;;;;20.95;29.42;98560.50;5036025;28;1902;-73
2022/11/09 04:39:25;;;;;;;;;;;;;;;21.13;29.15;98567.91;5036234;28;947;-73
2022/11/09 04:41:51;;;;;;;;;;;;;;;20.77;29.90;98569.22;5035596;28;886;-73
2022/11/09 04:44:16;;;;;;;;;;;;;;;20.65;29.96;98567.00;5036458;28;891;-73
2022/11/09 04:46:42;;;;;;;;;;;;;;;20.57;30.13;98576.78;5036098;28;945;-73
2022/11/09 04:49:07;;;;;;;;;;;;;;;20.38;30.30;98568.94;5036236;28;928;-73
2022/11/09 04:51:33;;;;;;;;;;;;;;;20.64;30.03;98575.91;5035945;28;894;-73
2022/11/09 04:53:58;;;;;;;;;;;;;;;21.09;29.32;98587.78;5033638;28;951;-73
2022/11/09 04:56:23;;;;;;;;;;;;;;;20.90;29.52;98585.66;5033306;28;1971;-73
2022/11/09 04:58:49;;;;;;;;;;;;;;;20.55;30.16;98590.56;5066617;28;1418;-73
2022/11/09 05:01:14;;;;;;;;;;;;;;;20.60;30.06;98587.25;5033848;28;978;-73
2022/11/09 05:03:40;;;;;;;;;;;;;;;20.55;30.07;98590.56;5033367;28;1217;-73
2022/11/09 05:06:30;;;;;;;;;;;;;;;20.85;29.85;98594.59;5050269;28;973;-73
2022/11/09 05:08:51;;;;;;;;;;;;;;;21.04;29.30;98599.59;5047143;28;1021;-73
2022/11/09 05:11:16;;;;;;;;;;;;;;;20.83;29.77;98597.88;5049827;28;1013;-73
2022/11/09 05:13:42;;;;;;;;;;;;;;;20.79;29.69;98591.47;5032972;28;957;-73
2022/11/09 05:16:08;;;;;;;;;;;;;;;20.67;29.78;98601.28;5066266;28;1972;-73
2022/11/09 05:18:33;;;;;;;;;;;;;;;20.64;30.08;98598.53;5049642;28;1027;-73
2022/11/09 05:20:59;;;;;;;;;;;;;;;20.85;29.79;98608.75;5033279;28;1036;-73
2022/11/09 05:26:08;;;;;;;;;;;;;;;20.75;29.70;98604.84;5035603;28;889;-73
2022/11/09 05:28:34;;;;;;;;;;;;;;;20.72;30.08;98614.97;5035677;28;1182;-73
2022/11/09 05:30:59;;;;;;;;;;;;;;;20.81;29.83;98614.44;5035789;28;861;-73
2022/11/09 05:33:24;;;;;;;;;;;;;;;21.01;29.61;98620.22;5035815;28;1026;-73
2022/11/09 05:35:50;;;;;;;;;;;;;;;21.13;29.44;98625.31;5032290;28;1902;-73
2022/11/09 05:38:16;;;;;;;;;;;;;;;21.07;29.12;98621.34;5035728;28;991;-73
2022/11/09 05:40:41;;;;;;;;;;;;;;;20.79;29.85;98631.84;5032971;28;1038;-73
2022/11/09 05:43:06;;;;;;;;;;;;;;;20.85;29.82;98642.69;5032651;28;865;-73
2022/11/09 05:45:32;;;;;;;;;;;;;;;20.96;29.76;98638.47;5032640;28;991;-73
2022/11/09 05:47:57;;;;;;;;;;;;;;;21.01;29.41;98637.22;5032907;28;979;-73
2022/11/09 05:50:23;;;;;;;;;;;;;;;20.79;29.80;98639.53;5032786;28;956;-73
2022/11/09 05:53:07;;;;;;;;;;;;;;;20.65;29.88;98646.16;5035900;28;889;-73
2022/11/09 05:55:32;;;;;;;;;;;;;;;20.54;29.93;98649.13;5053366;28;1972;-73
2022/11/09 05:57:58;;;;;;;;;;;;;;;20.72;29.95;98642.44;5053285;28;927;-73
2022/11/09 06:00:23;;;;;;;;;;;;;;;21.04;29.50;98650.53;5053611;28;974;-73
2022/11/09 06:02:49;;;;;;;;;;;;;;;21.25;29.01;98655.06;5053623;28;1072;-73
2022/11/09 06:05:15;;;;;;;;;;;;;;;20.83;29.52;98657.25;5036949;28;951;-73
2022/11/09 06:07:40;;;;;;;;;;;;;;;21.01;29.58;98652.16;5034535;28;896;-73
2022/11/09 06:10:06;;;;;;;;;;;;;;;20.68;29.94;98662.31;5037681;28;1264;-73
2022/11/09 06:12:32;;;;;;;;;;;;;;;20.66;30.13;98659.06;5037855;28;1048;-73
2022/11/09 06:14:57;;;;;;;;;;;;;;;21.04;29.43;98661.84;5039233;28;955;-73
2022/11/09 06:17:22;;;;;;;;;;;;;;;20.94;29.79;98665.59;5038576;28;1922;-73
2022/11/09 06:19:48;;;;;;;;;;;;;;;20.80;29.66;98658.91;5037059;28;1007;-73
2022/11/09 06:22:13;;;;;;;;;;;;;;;20.59;30.20;98670.47;5039005;28;905;-73
2022/11/09 06:24:39;;;;;;;;;;;;;;;20.45;30.28;98664.97;5038730;28;1047;-73
2022/11/09 06:27:05;;;;;;;;;;;;;;;20.67;30.24;98674.81;5038835;28;1129;-73
2022/11/09 06:29:30;;;;;;;;;;;;;;;21.00;29.52;98678.06;5038495;28;1092;-73
2022/11/09 06:31:56;;;;;;;;;;;;;;;20.89;29.87;98671.75;5038848;28;927;-73
2022/11/09 06:34:21;;;;;;;;;;;;;;;20.62;30.05;98680.94;5038469;28;999;-73
2022/11/09 06:36:46;;;;;;;;;;;;;;;20.42;30.54;98677.13;5038832;28;1971;-73
2022/11/09 06:39:12;;;;;;;;;;;;;;;20.41;30.67;98678.31;5038343;28;965;-73
2022/11/09 06:41:37;;;;;;;;;;;;;;;21.20;29.30;98670.50;5038087;28;941;-73
2022/11/09 06:44:04;;;;;;;;;;;;;;;21.30;29.12;98672.41;5038790;28;911;-73
2022/11/09 06:46:30;;;;;;;;;;;;;;;20.79;29.72;98677.09;5037377;28;876;-73
2022/11/09 06:48:55;;;;;;;;;;;;;;;20.97;29.60;98679.69;5038428;28;964;-73
2022/11/09 06:51:21;;;;;;;;;;;;;;;20.18;30.02;98626.09;5038591;28;932;-73
2022/11/09 06:53:46;;;;;;;;;;;;;;;20.64;29.91;98684.16;5038575;28;925;-73
2022/11/09 06:56:12;;;;;;;;;;;;;;;21.05;29.69;98686.06;5038189;28;1906;-73
2022/11/09 06:58:37;;;;;;;;;;;;;;;21.15;29.53;98685.13;5041821;28;1500;-73
2022/11/09 07:01:07;;;;;;;;;;;;;;;20.88;29.76;98692.75;5057617;28;1229;-73
2022/11/09 07:03:32;;;;;;;;;;;;;;;20.72;29.82;98694.13;5080901;28;1306;-73
2022/11/09 07:05:58;;;;;;;;;;;;;;;20.68;29.76;98701.88;5054710;28;1060;-73
2022/11/09 07:08:23;;;;;;;;;;;;;;;20.74;29.76;98696.56;5063237;28;888;-73
2022/11/09 07:10:49;;;;;;;;;;;;;;;20.72;30.33;98696.97;5057931;28;1120;-73
2022/11/09 07:13:14;;;;;;;;;;;;;;;20.97;29.60;98704.34;5090313;28;925;-73
2022/11/09 07:15:40;;;;;;;;;;;;;;;20.96;29.80;98699.91;5073247;28;1906;-73
2022/11/09 07:18:06;;;;;;;;;;;;;;;20.74;30.00;98693.75;5090459;28;886;-73
2022/11/09 07:20:32;;;;;;;;;;;;;;;20.70;29.99;98688.13;5057657;28;861;-74
2022/11/09 07:22:57;;;;;;;;;;;;;;;20.49;30.60;98688.38;5057511;28;1094;-74
2022/11/09 07:25:23;;;;;;;;;;;;;;;20.52;30.50;98676.19;5057537;28;912;-74
2022/11/09 07:27:49;;;;;;;;;;;;;;;20.85;30.06;98682.28;5089650;28;999;-74
2022/11/09 07:30:15;;;;;;;;;;;;;;;21.20;29.40;98673.31;5089951;28;980;-74
2022/11/09 07:32:40;;;;;;;;;;;;;;;20.95;29.66;98675.69;5057320;28;1108;-74
2022/11/09 07:35:06;;;;;;;;;;;;;;;20.50;30.31;98678.66;5057467;28;1020;-74
2022/11/09 07:37:32;;;;;;;;;;;;;;;20.66;30.13;98676.03;5048732;28;1918;-74
2022/11/09 07:39:57;;;;;;;;;;;;;;;20.29;30.69;98674.81;5053898;28;1265;-74
2022/11/09 07:42:23;;;;;;;;;;;;;;;20.86;30.03;98678.22;5081032;28;1235;-74
2022/11/09 07:44:48;;;;;;;;;;;;;;;20.92;29.69;98676.53;5071096;28;1351;-74
2022/11/09 07:47:14;;;;;;;;;;;;;;;21.14;29.45;98677.03;5057245;28;1005;-74
2022/11/09 07:49:40;;;;;;;;;;;;;;;20.81;29.74;98683.13;5056985;28;1491;-74
2022/11/09 07:52:05;;;;;;;;;;;;;;;20.66;30.18;98681.69;5056675;28;1083;-74
2022/11/09 07:54:31;;;;;;;;;;;;;;;20.79;29.71;98691.25;5057131;28;1019;-74
2022/11/09 07:56:56;;;;;;;;;;;;;;;20.55;30.20;98686.69;5055520;28;1965;-74
2022/11/09 07:59:22;;;;;;;;;;;;;;;20.79;29.97;98690.44;5055797;28;979;-74
2022/11/09 08:01:47;;;;;;;;;;;;;;;20.99;29.68;98687.78;5056808;28;942;-74
2022/11/09 08:04:13;;;;;;;;;;;;;;;20.79;30.00;98691.25;5056025;28;941;-74
2022/11/09 08:06:39;;;;;;;;;;;;;;;20.78;29.92;98689.66;5057247;28;940;-74
2022/11/09 08:09:04;;;;;;;;;;;;;;;20.85;29.69;98690.78;5055817;28;1398;-74
2022/11/09 08:11:29;;;;;;;;;;;;;;;20.88;29.81;98698.41;5056731;28;875;-74
2022/11/09 08:13:55;;;;;;;;;;;;;;;20.63;30.35;98693.06;5056402;28;926;-74
2022/11/09 08:16:21;;;;;;;;;;;;;;;21.06;29.72;98693.31;5055402;28;1901;-74
2022/11/09 08:18:47;;;;;;;;;;;;;;;21.06;29.75;98687.66;5056930;28;1017;-74
2022/11/09 08:21:13;;;;;;;;;;;;;;;20.57;30.29;98686.25;5055600;28;947;-73
2022/11/09 08:23:38;;;;;;;;;;;;;;;20.79;29.93;98685.59;5056239;28;892;-74
2022/11/09 08:26:04;;;;;;;;;;;;;;;20.58;30.44;98680.19;5037746;28;1235;-74
2022/11/09 08:28:30;;;;;;;;;;;;;;;20.70;29.95;98684.50;5056081;28;999;-74
2022/11/09 08:30:56;;;;;;;;;;;;;;;20.97;29.77;98681.72;5056261;28;900;-74
2022/11/09 08:33:21;;;;;;;;;;;;;;;21.23;29.24;98685.81;5055272;28;1066;-74
2022/11/09 08:35:47;;;;;;;;;;;;;;;20.75;30.13;98689.69;5055951;28;1913;-74
2022/11/09 08:38:12;;;;;;;;;;;;;;;20.90;30.08;98698.78;5055957;28;939;-74
2022/11/09 08:40:38;;;;;;;;;;;;;;;20.54;30.56;98691.53;5054770;28;1606;-74
2022/11/09 08:43:04;;;;;;;;;;;;;;;20.66;30.23;98698.66;5056471;28;893;-74
2022/11/09 08:45:33;;;;;;;;;;;;;;;21.01;30.00;98702.28;5055932;28;1172;-74
2022/11/09 08:47:59;;;;;;;;;;;;;;;21.05;29.83;98697.38;5054664;28;1269;-74
2022/11/09 08:50:25;;;;;;;;;;;;;;;21.27;29.47;98698.69;5055764;28;1244;-74
2022/11/09 08:52:50;;;;;;;;;;;;;;;20.76;30.31;98703.38;5088608;28;871;-74
2022/11/09 08:55:16;;;;;;;;;;;;;;;20.68;29.87;98701.09;5055867;28;1980;-74
2022/11/09 08:57:41;;;;;;;;;;;;;;;20.81;29.96;98699.28;5055660;28;910;-74
2022/11/09 09:00:07;;;;;;;;;;;;;;;20.77;29.94;98707.00;5087937;28;1084;-74
2022/11/09 09:02:32;;;;;;;;;;;;;;;21.01;29.75;98716.44;5055796;28;911;-74
2022/11/09 09:04:58;;;;;;;;;;;;;;;21.21;29.30;98705.25;5053392;28;1013;-74
2022/11/09 09:07:23;;;;;;;;;;;;;;;20.69;30.37;98702.69;5055726;28;981;-74
2022/11/09 09:09:49;;;;;;;;;;;;;;;20.60;30.26;98705.22;5055662;28;1269;-74
2022/11/09 09:12:14;;;;;;;;;;;;;;;20.53;30.29;98706.09;5055743;28;859;-74
2022/11/09 09:14:40;;;;;;;;;;;;;;;20.88;30.11;98712.53;5055668;28;886;-74
2022/11/09 09:17:05;;;;;;;;;;;;;;;21.13;29.73;98704.53;5055645;28;1982;-74
2022/11/09 09:19:30;;;;;;;;;;;;;;;21.14;29.65;98700.50;5055138;28;900;-74
2022/11/09 09:21:56;;;;;;;;;;;;;;;20.84;29.97;98697.66;5054955;28;1086;-74
2022/11/09 09:24:21;;;;;;;;;;;;;;;20.66;30.26;98698.66;5054800;28;1213;-74
2022/11/09 09:26:47;;;;;;;;;;;;;;;20.78;30.20;98700.97;5053911;28;2038;-74
2022/11/09 09:29:12;;;;;;;;;;;;;;;20.63;30.12;98702.34;5055248;28;958;-74
2022/11/09 09:31:38;;;;;;;;;;;;;;;20.91;30.19;98697.56;5055426;28;971;-74
2022/11/09 09:34:04;;;;;;;;;;;;;;;21.10;29.57;98694.09;5055121;28;1102;-74
2022/11/09 09:36:29;;;;;;;;;;;;;;;21.30;29.06;98697.88;5054416;28;1922;-74
2022/11/09 09:38:56;;;;;;;;;;;;;;;21.25;29.13;98689.81;5054839;28;1392;-74
2022/11/09 09:41:48;;;;;;;;;;;;;;;20.89;30.16;98697.19;5053905;28;1460;-74
2022/11/09 09:44:28;;;;;;;;;;;;;;;20.71;30.42;98695.38;5032540;28;1241;-74
2022/11/09 09:47:08;;;;;;;;;;;;;;;20.66;29.97;98690.19;5028166;28;1266;-74
2022/11/09 09:49:35;;;;;;;;;;;;;;;20.61;30.62;98678.53;5030378;28;1243;-74
2022/11/09 09:52:19;;;;;;;;;;;;;;;21.06;29.76;98682.00;5032675;28;1312;-74
2022/11/09 09:54:58;;;;;;;;;;;;;;;20.96;29.79;98683.75;5032644;28;1100;-74
2022/11/09 09:57:23;;;;;;;;;;;;;;;20.57;30.20;98681.38;5038801;28;1918;-74
2022/11/09 09:59:50;;;;;;;;;;;;;;;20.72;30.30;98676.38;5033733;28;1261;-74
2022/11/09 10:02:21;;;;;;;;;;;;;;;20.63;30.25;98676.91;5016300;28;928;-74
2022/11/09 10:04:47;;;;;;;;;;;;;;;20.80;29.85;98675.06;5032796;28;925;-74
2022/11/09 10:07:14;;;;;;;;;;;;;;;20.78;30.19;98677.53;5016141;28;1056;-74
2022/11/09 10:09:40;;;;;;;;;;;;;;;21.00;29.56;98672.41;5012697;28;1285;-74
2022/11/09 10:12:17;;;;;;;;;;;;;;;20.99;29.54;98680.09;5032356;28;1151;-75
2022/11/09 10:14:52;;;;;;;;;;;;;;;20.65;30.32;98662.34;5038734;28;2005;-74
2022/11/09 10:17:17;;;;;;;;;;;;;;;20.79;29.87;98667.81;5032608;28;1981;-75
2022/11/09 10:19:46;;;;;;;;;;;;;;;20.80;30.11;98669.41;5032524;28;1420;-75
2022/11/09 10:22:14;;;;;;;;;;;;;;;20.54;30.48;98670.94;5075789;28;1236;-74
2022/11/09 10:24:46;;;;;;;;;;;;;;;21.17;29.32;98659.22;5044387;28;1214;-74
2022/11/09 10:27:23;;;;;;;;;;;;;;;21.12;29.26;98657.66;5044297;28;1216;-74
2022/11/09 10:29:49;;;;;;;;;;;;;;;20.68;30.15;98650.97;5076212;28;1197;-75
2022/11/09 10:32:15;;;;;;;;;;;;;;;20.68;30.14;98642.50;5078637;28;1191;-75
2022/11/09 10:34:59;;;;;;;;;;;;;;;20.49;30.18;98648.78;5054375;28;1208;-74
2022/11/09 10:37:30;;;;;;;;;;;;;;;20.64;30.21;98653.06;5052227;28;1902;-73
2022/11/09 10:39:56;;;;;;;;;;;;;;;21.23;29.36;98646.97;5089740;28;904;-73
2022/11/09 10:42:42;;;;;;;;;;;;;;;20.95;29.88;98647.41;5058482;28;949;-73
2022/11/09 10:45:30;;;;;;;;;;;;;;;20.89;29.44;98644.25;5085583;28;923;-73
2022/11/09 10:48:24;;;;;;;;;;;;;;;20.66;29.90;98653.41;5058428;28;885;-73
2022/11/09 10:51:27;;;;;;;;;;;;;;;20.49;30.32;98643.13;5085572;28;1275;-73
2022/11/09 10:54:17;;;;;;;;;;;;;;;20.56;30.68;98643.03;5085724;28;1013;-73
2022/11/09 10:57:21;;;;;;;;;;;;;;;20.99;29.72;98631.97;5085442;28;1969;-73
2022/11/09 11:00:12;;;;;;;;;;;;;;;20.62;30.18;98641.34;5058084;28;866;-73
2022/11/09 11:02:56;;;;;;;;;;;;;;;20.66;29.98;98636.44;5085428;28;924;-73
2022/11/09 11:05:40;;;;;;;;;;;;;;;20.55;30.19;98630.13;5057846;28;917;-73
2022/11/09 11:08:26;;;;;;;;;;;;;;;20.61;30.28;98639.75;5085397;28;917;-73
2022/11/09 11:11:20;;;;;;;;;;;;;;;20.93;29.68;98639.31;5058019;28;880;-73
2022/11/09 11:14:10;;;;;;;;;;;;;;;21.03;29.70;98631.91;5085222;28;979;-73
2022/11/09 11:16:55;;;;;;;;;;;;;;;20.79;29.83;98626.19;5057858;28;1879;-73
2022/11/09 11:19:40;;;;;;;;;;;;;;;20.39;30.85;98627.06;5085055;28;938;-73
2022/11/09 11:22:26;;;;;;;;;;;;;;;20.44;30.81;98623.78;5057494;28;924;-73
2022/11/09 11:25:16;;;;;;;;;;;;;;;21.18;29.40;98626.84;5084535;28;1022;-73
2022/11/09 11:28:01;;;;;;;;;;;;;;;20.98;29.56;98623.91;5095429;28;944;-73
2022/11/09 11:30:45;;;;;;;;;;;;;;;20.46;30.41;98621.31;5109739;28;1038;-74
2022/11/09 11:33:30;;;;;;;;;;;;;;;20.59;30.32;98613.94;5109778;28;955;-74
2022/11/09 11:36:38;;;;;;;;;;;;;;;20.39;30.75;98621.41;5109361;28;1918;-74
2022/11/09 11:39:48;;;;;;;;;;;;;;;20.65;30.25;98612.22;5109499;28;933;-74
2022/11/09 11:42:31;;;;;;;;;;;;;;;21.18;29.61;98616.34;5075091;28;977;-74
2022/11/09 11:45:31;;;;;;;;;;;;;;;20.71;30.03;98616.19;5065925;28;1153;-71
2022/11/09 11:48:30;;;;;;;;;;;;;;;20.46;30.52;98626.97;5049558;28;1087;-72
2022/11/09 11:51:17;;;;;;;;;;;;;;;20.51;30.31;98632.19;5064568;28;1024;-73
2022/11/09 11:54:06;;;;;;;;;;;;;;;20.53;30.32;98633.38;5020719;28;1063;-73
2022/11/09 11:56:57;;;;;;;;;;;;;;;20.99;29.79;98634.00;5034778;28;1907;-73
2022/11/09 11:59:50;;;;;;;;;;;;;;;21.13;29.67;98630.97;5034443;28;1019;-73
2022/11/09 12:02:46;;;;;;;;;;;;;;;21.10;29.55;98619.72;5034614;28;957;-73
2022/11/09 12:05:30;;;;;;;;;;;;;;;20.76;30.24;98618.53;5034515;28;976;-73
2022/11/09 12:08:15;;;;;;;;;;;;;;;20.45;30.32;98616.91;5034437;28;919;-73
2022/11/09 12:11:07;;;;;;;;;;;;;;;20.41;30.80;98618.97;5034351;28;962;-73
2022/11/09 12:13:57;;;;;;;;;;;;;;;20.70;30.37;98613.78;5020424;28;1053;-73
2022/11/09 12:16:41;;;;;;;;;;;;;;;21.02;29.84;98624.66;5020211;28;1914;-73
2022/11/09 12:19:31;;;;;;;;;;;;;;;20.80;29.67;98629.81;5035734;28;967;-73
2022/11/09 12:22:18;;;;;;;;;;;;;;;20.73;29.87;98625.06;5036540;28;891;-73
2022/11/09 12:25:10;;;;;;;;;;;;;;;20.55;30.36;98619.63;5036394;28;922;-73
2022/11/09 12:28:00;;;;;;;;;;;;;;;20.71;30.24;98621.84;5049595;28;934;-73
2022/11/09 12:30:48;;;;;;;;;;;;;;;21.17;29.59;98625.25;5036475;28;910;-73
2022/11/09 12:33:58;;;;;;;;;;;;;;;20.89;29.75;98624.44;5036336;28;942;-73
2022/11/09 12:36:42;;;;;;;;;;;;;;;20.76;29.79;98618.53;5053615;28;1906;-73
2022/11/09 12:39:28;;;;;;;;;;;;;;;20.69;30.05;98624.31;5053802;28;1019;-73
2022/11/09 12:42:22;;;;;;;;;;;;;;;20.54;30.24;98628.53;5053751;28;1010;-73
2022/11/09 12:45:19;;;;;;;;;;;;;;;20.75;29.98;98625.44;5053697;28;983;-73
2022/11/09 12:48:05;;;;;;;;;;;;;;;20.88;29.73;98630.50;5053475;28;1096;-73
2022/11/09 12:50:49;;;;;;;;;;;;;;;20.87;29.84;98624.06;5063508;28;1079;-73
2022/11/09 12:53:34;;;;;;;;;;;;;;;20.61;30.24;98622.78;5046995;28;1110;-73
2022/11/09 12:56:22;;;;;;;;;;;;;;;20.57;30.30;98624.03;5041693;28;1975;-73
2022/11/09 12:59:38;;;;;;;;;;;;;;;20.65;30.20;98620.72;5039707;28;1040;-73
2022/11/09 13:02:43;;;;;;;;;;;;;;;20.58;30.70;98612.34;5003890;28;1045;-73
2022/11/09 13:05:34;;;;;;;;;;;;;;;20.90;29.81;98625.25;5005186;28;1052;-73
2022/11/09 13:08:25;;;;;;;;;;;;;;;20.59;30.33;98619.59;4995934;28;1115;-73
2022/11/09 13:11:16;;;;;;;;;;;;;;;20.46;30.49;98626.97;4996224;28;1151;-73
2022/11/09 13:14:19;;;;;;;;;;;;;;;20.60;30.25;98618.34;4980910;28;1376;-73
2022/11/09 13:17:22;;;;;;;;;;;;;;;20.54;30.28;98623.69;4990666;28;1902;-73
2022/11/09 13:20:29;;;;;;;;;;;;;;;20.81;29.83;98620.91;4984625;28;1044;-73
2022/11/09 13:23:42;;;;;;;;;;;;;;;20.95;29.56;98619.91;5003408;28;1111;-73